createdAt,value
2023-04-02T00:01:47.772Z,1.43
2023-04-02T00:05:34.551Z,1.90
2023-04-02T00:08:41.015Z,0.50
2023-04-02T00:11:45.474Z,1.07
2023-04-02T00:14:51.463Z,1.07
2023-04-02T00:17:54.167Z,0.30
2023-04-02T00:21:04.082Z,1.13
2023-04-02T00:24:14.968Z,2.03
2023-04-02T00:27:18.295Z,0.20
2023-04-02T00:30:21.047Z,0.45
2023-04-02T00:33:25.301Z,0.63
2023-04-02T00:36:34.127Z,0.30
2023-04-02T00:43:16.437Z,0.33
2023-04-02T00:46:24.188Z,0.60
2023-04-02T00:49:32.748Z,1.13
2023-04-02T00:52:37.109Z,0.40
2023-04-02T00:55:41.646Z,1.30
2023-04-02T00:58:44.876Z,1.03
2023-04-02T01:01:54.245Z,2.63
2023-04-02T01:04:58.758Z,1.07
2023-04-02T01:08:09.246Z,0.40
2023-04-02T01:11:23.329Z,0.20
2023-04-02T01:14:36.983Z,0.40
2023-04-02T01:17:49.597Z,0.63
2023-04-02T01:21:10.453Z,0.50
2023-04-02T01:24:15.104Z,1.07
2023-04-02T01:27:19.942Z,1.13
2023-04-02T01:30:29.579Z,0.67
2023-04-02T01:33:35.492Z,1.80
2023-04-02T01:36:43.451Z,0.90
2023-04-02T01:40:05.548Z,0.50
2023-04-02T01:43:16.497Z,0.53
2023-04-02T01:49:58.848Z,2.33
2023-04-02T01:53:03.412Z,0.40
2023-04-02T01:56:07.413Z,0.20
2023-04-02T01:59:11.579Z,2.00
2023-04-02T02:02:15.886Z,0.30
2023-04-02T02:05:20.364Z,0.63
2023-04-02T02:08:32.287Z,0.53
2023-04-02T02:11:36.444Z,0.87
2023-04-02T02:14:39.108Z,0.50
2023-04-02T02:17:43.252Z,0.20
2023-04-02T02:20:45.828Z,0.57
2023-04-02T02:23:48.364Z,1.00
2023-04-02T02:30:31.559Z,0.57
2023-04-02T02:33:38.103Z,0.83
2023-04-02T02:36:46.485Z,0.53
2023-04-02T02:39:52.611Z,1.07
2023-04-02T02:42:58.142Z,0.30
2023-04-02T02:46:01.533Z,1.57
2023-04-02T02:49:06.146Z,0.50
2023-04-02T02:52:16.132Z,0.87
2023-04-02T02:55:20.902Z,3.50
2023-04-02T02:58:27.433Z,0.90
2023-04-02T03:01:30.394Z,0.70
2023-04-02T03:04:35.648Z,0.38
2023-04-02T03:07:38.857Z,1.03
2023-04-02T03:10:45.273Z,1.67
2023-04-02T03:13:50.358Z,0.70
2023-04-02T03:16:56.394Z,2.07
2023-04-02T03:20:06.337Z,0.90
2023-04-02T03:23:15.696Z,0.40
2023-04-02T03:26:20.864Z,0.63
2023-04-02T03:29:27.027Z,0.93
2023-04-02T03:32:32.074Z,0.40
2023-04-02T03:35:39.360Z,2.27
2023-04-02T03:38:44.488Z,0.77
2023-04-02T03:41:49.618Z,0.90
2023-04-02T03:44:55.233Z,0.47
2023-04-02T03:48:01.980Z,0.97
2023-04-02T03:51:08.310Z,0.57
2023-04-02T03:54:14.486Z,0.60
2023-04-02T03:57:26.741Z,1.80
2023-04-02T04:00:34.256Z,0.70
2023-04-02T04:03:40.926Z,0.87
2023-04-02T04:06:46.593Z,0.60
2023-04-02T04:09:52.118Z,0.30
2023-04-02T04:12:57.707Z,1.13
2023-04-02T04:16:03.505Z,0.43
2023-04-02T04:19:08.149Z,0.87
2023-04-02T04:22:17.903Z,0.40
2023-04-02T04:25:23.786Z,2.00
2023-04-02T04:28:30.482Z,1.87
2023-04-02T04:31:38.943Z,1.17
2023-04-02T04:34:46.866Z,1.50
2023-04-02T04:37:58.643Z,1.87
2023-04-02T04:41:05.286Z,0.87
2023-04-02T04:44:14.178Z,0.67
2023-04-02T04:47:18.965Z,1.23
2023-04-02T04:50:29.132Z,0.87
2023-04-02T04:53:33.254Z,1.20
2023-04-02T04:56:35.877Z,0.73
2023-04-02T04:59:43.956Z,1.17
2023-04-02T05:02:48.652Z,0.87
2023-04-02T05:05:51.908Z,0.30
2023-04-02T05:08:56.931Z,0.77
2023-04-02T05:12:05.641Z,1.17
2023-04-02T05:15:13.943Z,0.63
2023-04-02T05:18:24.900Z,0.33
2023-04-02T05:21:34.225Z,0.30
2023-04-02T05:24:43.697Z,0.40
2023-04-02T05:27:49.631Z,0.63
2023-04-02T05:30:53.684Z,1.20
2023-04-02T05:33:56.968Z,0.30
2023-04-02T05:36:59.709Z,0.70
2023-04-02T05:40:12.821Z,0.47
2023-04-02T05:43:18.854Z,0.57
2023-04-02T05:46:25.577Z,0.90
2023-04-02T05:49:31.322Z,1.53
2023-04-02T05:52:37.359Z,0.40
2023-04-02T05:55:46.121Z,0.70
2023-04-02T05:58:51.381Z,3.67
2023-04-02T06:01:58.847Z,0.87
2023-04-02T06:05:07.121Z,0.50
2023-04-02T06:08:12.489Z,0.70
2023-04-02T06:11:20.020Z,1.93
2023-04-02T06:14:22.616Z,0.57
2023-04-02T06:17:25.569Z,1.53
2023-04-02T06:20:28.604Z,0.50
2023-04-02T06:23:34.058Z,1.98
2023-04-02T06:26:40.049Z,0.80
2023-04-02T06:29:45.601Z,1.63
2023-04-02T06:32:49.890Z,2.10
2023-04-02T06:35:53.397Z,0.83
2023-04-02T06:38:58.746Z,0.70
2023-04-02T06:42:06.224Z,1.27
2023-04-02T06:45:15.625Z,0.70
2023-04-02T06:48:20.816Z,1.43
2023-04-02T06:51:24.130Z,2.17
2023-04-02T06:54:26.986Z,0.55
2023-04-02T06:57:32.766Z,1.65
2023-04-02T07:00:38.098Z,0.70
2023-04-02T07:03:41.031Z,1.87
2023-04-02T07:06:43.650Z,1.58
2023-04-02T07:09:46.275Z,0.77
2023-04-02T07:12:50.257Z,1.00
2023-04-02T07:15:55.136Z,2.63
2023-04-02T07:18:58.955Z,4.77
2023-04-02T07:25:04.214Z,1.63
2023-04-02T07:28:08.164Z,1.25
2023-04-02T07:31:16.687Z,1.10
2023-04-02T07:34:19.250Z,0.80
2023-04-02T07:37:21.754Z,0.50
2023-04-02T07:40:24.418Z,0.93
2023-04-02T07:43:28.300Z,1.27
2023-04-02T07:46:31.108Z,1.90
2023-04-02T07:49:33.633Z,1.55
2023-04-02T07:52:40.635Z,1.53
2023-04-02T07:55:43.283Z,0.50
2023-04-02T07:58:47.437Z,0.33
2023-04-02T08:01:50.264Z,0.97
2023-04-02T08:04:52.937Z,1.70
2023-04-02T08:07:56.027Z,1.47
2023-04-02T08:10:58.611Z,0.88
2023-04-02T08:14:02.747Z,1.80
2023-04-02T08:17:05.464Z,1.00
2023-04-02T08:20:11.930Z,3.40
2023-04-02T08:23:17.086Z,1.00
2023-04-02T08:26:19.972Z,1.30
2023-04-02T08:29:23.882Z,2.22
2023-04-02T08:32:29.834Z,2.00
2023-04-02T08:35:32.362Z,1.27
2023-04-02T08:38:34.923Z,1.10
2023-04-02T08:41:39.699Z,5.37
2023-04-02T08:44:48.169Z,5.40
2023-04-02T08:47:52.130Z,1.97
2023-04-02T08:50:55.139Z,1.27
2023-04-02T08:54:01.407Z,0.57
2023-04-02T08:57:07.708Z,0.70
2023-04-02T09:00:27.584Z,1.00
2023-04-02T09:03:32.265Z,0.70
2023-04-02T09:06:35.744Z,0.67
2023-04-02T09:09:39.272Z,0.98
2023-04-02T09:12:43.222Z,1.40
2023-04-02T09:15:47.576Z,2.03
2023-04-02T09:18:52.462Z,1.63
2023-04-02T09:22:07.538Z,1.17
2023-04-02T09:25:15.245Z,2.20
2023-04-02T09:28:18.022Z,1.57
2023-04-02T09:31:24.260Z,4.38
2023-04-02T09:34:31.407Z,2.03
2023-04-02T09:37:34.700Z,1.33
2023-04-02T09:40:43.434Z,2.38
2023-04-02T09:43:46.309Z,3.27
2023-04-02T09:46:56.171Z,1.05
2023-04-02T09:50:14.975Z,0.80
2023-04-02T09:53:30.576Z,0.50
2023-04-02T09:56:34.120Z,2.80
2023-04-02T10:02:41.861Z,0.77
2023-04-02T10:05:44.699Z,2.70
2023-04-02T10:08:48.539Z,0.70
2023-04-02T10:11:51.850Z,1.33
2023-04-02T10:14:55.962Z,0.40
2023-04-02T10:18:07.480Z,0.60
2023-04-02T10:21:13.331Z,0.93
2023-04-02T10:24:17.298Z,3.53
2023-04-02T10:27:28.494Z,0.70
2023-04-02T10:30:34.979Z,0.57
2023-04-02T10:33:40.340Z,0.57
2023-04-02T10:36:49.295Z,2.00
2023-04-02T10:39:54.265Z,0.77
2023-04-02T10:43:37.294Z,1.43
2023-04-02T10:46:46.418Z,1.37
2023-04-02T10:49:55.669Z,1.00
2023-04-02T10:53:01.849Z,1.73
2023-04-02T10:56:08.778Z,0.73
2023-04-02T10:59:17.822Z,3.20
2023-04-02T11:02:37.447Z,0.60
2023-04-02T11:05:44.218Z,0.47
2023-04-02T11:08:49.560Z,1.20
2023-04-02T11:11:54.087Z,0.77
2023-04-02T11:14:57.352Z,0.87
2023-04-02T11:18:00.171Z,1.02
2023-04-02T11:21:06.561Z,1.10
2023-04-02T11:24:25.080Z,0.60
2023-04-02T11:27:29.137Z,1.17
2023-04-02T11:30:31.785Z,1.27
2023-04-02T11:33:44.801Z,1.35
2023-04-02T11:37:07.735Z,1.13
2023-04-02T11:40:42.156Z,0.40
2023-04-02T11:43:52.739Z,0.40
2023-04-02T11:47:16.022Z,0.40
2023-04-02T11:50:30.943Z,0.47
2023-04-02T11:53:35.737Z,0.30
2023-04-02T11:56:41.884Z,0.50
2023-04-02T11:59:51.695Z,0.30
2023-04-02T12:03:06.873Z,1.10
2023-04-02T12:06:16.124Z,0.97
2023-04-02T12:09:23.447Z,0.30
2023-04-02T12:12:28.029Z,0.63
2023-04-02T12:15:35.212Z,0.40
2023-04-02T12:18:43.104Z,0.20
2023-04-02T12:21:47.386Z,0.27
2023-04-02T12:24:51.627Z,0.60
2023-04-02T12:28:09.330Z,0.30
2023-04-02T12:31:14.964Z,0.40
2023-04-02T12:34:19.214Z,0.30
2023-04-02T12:37:24.713Z,0.50
2023-04-02T12:40:29.183Z,0.30
2023-04-02T12:43:33.363Z,0.27
2023-04-02T12:46:36.606Z,0.30
2023-04-02T12:49:40.219Z,0.47
2023-04-02T12:52:45.622Z,0.53
2023-04-02T12:55:51.527Z,0.47
2023-04-02T12:58:55.610Z,0.20
2023-04-02T13:01:59.601Z,0.50
2023-04-02T13:05:03.369Z,0.77
2023-04-02T13:08:06.681Z,0.37
2023-04-02T13:11:10.600Z,0.68
2023-04-02T13:14:19.114Z,0.60
2023-04-02T13:17:45.150Z,1.83
2023-04-02T13:20:57.316Z,1.70
2023-04-02T13:23:59.825Z,1.00
2023-04-02T13:27:04.670Z,2.47
2023-04-02T13:30:11.368Z,1.93
2023-04-02T13:33:14.445Z,0.60
2023-04-02T13:36:16.966Z,1.15
2023-04-02T13:39:20.492Z,1.13
2023-04-02T13:45:28.640Z,1.02
2023-04-02T13:48:31.412Z,1.10
2023-04-02T13:51:37.479Z,1.30
2023-04-02T13:54:44.394Z,1.80
2023-04-02T13:57:50.004Z,1.77
2023-04-02T14:00:52.758Z,2.50
2023-04-02T14:03:56.974Z,2.33
2023-04-02T14:07:24.739Z,1.10
2023-04-02T14:10:36.545Z,0.80
2023-04-02T14:13:57.596Z,2.03
2023-04-02T14:17:08.133Z,2.23
2023-04-02T14:20:21.690Z,2.23
2023-04-02T14:23:33.954Z,2.28
2023-04-02T14:26:42.323Z,1.97
2023-04-02T14:29:50.993Z,2.30
2023-04-02T14:32:59.009Z,1.23
2023-04-02T14:36:10.282Z,1.23
2023-04-02T14:39:18.290Z,1.97
2023-04-02T14:42:23.538Z,1.17
2023-04-02T14:45:38.628Z,1.23
2023-04-02T14:48:45.324Z,1.73
2023-04-02T14:51:50.773Z,1.90
2023-04-02T14:54:55.614Z,1.20
2023-04-02T14:58:02.018Z,1.77
2023-04-02T15:01:13.735Z,1.60
2023-04-02T15:04:19.714Z,0.83
2023-04-02T15:07:25.300Z,0.70
2023-04-02T15:10:30.958Z,1.00
2023-04-02T15:13:37.525Z,1.27
2023-04-02T15:16:41.620Z,3.37
2023-04-02T15:19:44.348Z,1.00
2023-04-02T15:22:57.370Z,2.00
2023-04-02T15:26:10.872Z,3.95
2023-04-02T15:29:28.800Z,1.30
2023-04-02T15:32:39.399Z,1.33
2023-04-02T15:35:46.633Z,1.10
2023-04-02T15:38:54.241Z,1.03
2023-04-02T15:42:05.291Z,1.23
2023-04-02T15:45:19.340Z,1.10
2023-04-02T15:48:29.899Z,1.87
2023-04-02T15:51:51.900Z,1.57
2023-04-02T15:55:05.395Z,0.80
2023-04-02T15:58:23.055Z,0.88
2023-04-02T16:01:32.782Z,3.03
2023-04-02T16:04:47.191Z,1.47
2023-04-02T16:08:03.489Z,1.07
2023-04-02T16:11:10.336Z,1.73
2023-04-02T16:14:23.587Z,1.40
2023-04-02T16:17:32.238Z,0.88
2023-04-02T16:20:39.233Z,0.90
2023-04-02T16:23:42.589Z,0.73
2023-04-02T16:26:52.433Z,1.58
2023-04-02T16:30:07.107Z,1.83
2023-04-02T16:33:31.780Z,1.20
2023-04-02T16:36:46.403Z,2.57
2023-04-02T16:39:52.924Z,6.97
2023-04-02T16:43:01.260Z,2.50
2023-04-02T16:46:10.320Z,1.93
2023-04-02T16:49:21.127Z,1.17
2023-04-02T16:52:34.705Z,1.10
2023-04-02T16:55:47.447Z,1.90
2023-04-02T16:58:56.232Z,1.10
2023-04-02T17:02:01.106Z,1.90
2023-04-02T17:05:13.815Z,5.50
2023-04-02T17:08:22.835Z,1.30
2023-04-02T17:11:26.754Z,1.40
2023-04-02T17:14:32.949Z,0.90
2023-04-02T17:17:36.503Z,1.40
2023-04-02T17:20:39.196Z,1.85
2023-04-02T17:23:55.816Z,1.90
2023-04-02T17:27:01.888Z,1.60
2023-04-02T17:30:06.893Z,1.20
2023-04-02T17:33:12.554Z,1.10
2023-04-02T17:36:27.094Z,1.63
2023-04-02T17:39:36.226Z,1.07
2023-04-02T17:42:49.711Z,1.70
2023-04-02T17:45:53.484Z,1.85
2023-04-02T17:49:01.963Z,2.27
2023-04-02T17:52:10.157Z,1.60
2023-04-02T17:55:20.176Z,1.73
2023-04-02T17:58:38.903Z,2.70
2023-04-02T18:01:46.872Z,3.03
2023-04-02T18:04:54.202Z,2.00
2023-04-02T18:08:01.860Z,1.60
2023-04-02T18:11:10.735Z,4.40
2023-04-02T18:14:31.210Z,2.73
2023-04-02T18:17:42.229Z,2.03
2023-04-02T18:20:49.743Z,3.43
2023-04-02T18:24:20.455Z,2.47
2023-04-02T18:27:33.036Z,2.00
2023-04-02T18:30:38.229Z,2.43
2023-04-02T18:34:03.117Z,3.33
2023-04-02T18:37:15.335Z,2.30
2023-04-02T18:40:32.678Z,3.67
2023-04-02T18:43:45.870Z,2.60
2023-04-02T18:46:51.965Z,4.75
2023-04-02T18:50:03.812Z,3.10
2023-04-02T18:53:12.387Z,4.37
2023-04-02T18:56:17.476Z,2.40
2023-04-02T18:59:32.606Z,3.17
2023-04-02T19:02:41.501Z,3.70
2023-04-02T19:05:45.771Z,2.30
2023-04-02T19:08:49.830Z,4.90
2023-04-02T19:11:52.992Z,3.90
2023-04-02T19:14:59.252Z,2.92
2023-04-02T19:18:09.057Z,3.13
2023-04-02T19:21:17.463Z,3.73
2023-04-02T19:24:30.559Z,2.57
2023-04-02T19:27:40.999Z,3.65
2023-04-02T19:30:57.028Z,2.07
2023-04-02T19:34:04.297Z,2.17
2023-04-02T19:37:12.634Z,2.70
2023-04-02T19:40:22.913Z,2.20
2023-04-02T19:43:25.569Z,4.27
2023-04-02T19:46:29.485Z,4.20
2023-04-02T19:49:34.561Z,5.30
2023-04-02T19:52:37.193Z,3.33
2023-04-02T19:55:40.584Z,2.83
2023-04-02T19:58:43.114Z,4.55
2023-04-02T20:01:47.643Z,4.30
2023-04-02T20:04:50.256Z,4.07
2023-04-02T20:07:52.804Z,2.20
2023-04-02T20:10:56.458Z,3.77
2023-04-02T20:13:58.972Z,4.72
2023-04-02T20:17:03.147Z,2.70
2023-04-02T20:20:07.136Z,6.87
2023-04-02T20:23:10.064Z,5.90
2023-04-02T20:26:13.156Z,3.75
2023-04-02T20:29:15.649Z,4.97
2023-04-02T20:32:19.608Z,3.07
2023-04-02T20:35:22.163Z,7.23
2023-04-02T20:38:24.901Z,4.43
2023-04-02T20:41:27.838Z,4.10
2023-04-02T20:44:30.566Z,2.70
2023-04-02T20:47:34.672Z,3.20
2023-04-02T20:50:37.471Z,6.03
2023-04-02T20:53:40.213Z,4.85
2023-04-02T20:56:43.048Z,7.40
2023-04-02T20:59:45.593Z,3.15
2023-04-02T21:02:49.653Z,2.27
2023-04-02T21:05:52.328Z,3.73
2023-04-02T21:08:54.863Z,2.13
2023-04-02T21:11:57.492Z,3.50
2023-04-02T21:15:02.293Z,2.77
2023-04-02T21:18:07.054Z,6.37
2023-04-02T21:21:13.241Z,2.73
2023-04-02T21:24:15.790Z,3.73
2023-04-02T21:27:18.343Z,2.97
2023-04-02T21:30:20.863Z,2.03
2023-04-02T21:33:24.783Z,4.17
2023-04-02T21:36:29.233Z,5.53
2023-04-02T21:39:31.762Z,2.83
2023-04-02T21:42:34.386Z,2.87
2023-04-02T21:45:37.253Z,3.87
2023-04-02T21:48:41.878Z,5.07
2023-04-02T21:51:46.618Z,4.63
2023-04-02T21:54:49.312Z,2.87
2023-04-02T21:57:51.822Z,4.17
2023-04-02T22:00:54.417Z,4.40
2023-04-02T22:04:00.302Z,3.83
2023-04-02T22:07:02.967Z,3.33
2023-04-02T22:10:05.957Z,2.43
2023-04-02T22:13:08.730Z,3.53
2023-04-02T22:16:13.535Z,4.70
2023-04-02T22:19:17.586Z,5.57
2023-04-02T22:22:20.440Z,3.47
2023-04-02T22:25:23.030Z,4.40
2023-04-02T22:28:26.357Z,2.60
2023-04-02T22:31:30.779Z,4.13
2023-04-02T22:34:34.708Z,3.07
2023-04-02T22:37:37.266Z,4.67
2023-04-02T22:40:39.824Z,2.70
2023-04-02T22:43:43.853Z,3.13
2023-04-02T22:46:46.525Z,4.07
2023-04-02T22:49:51.045Z,3.27
2023-04-02T22:52:53.992Z,4.83
2023-04-02T22:55:56.520Z,3.88
2023-04-02T22:58:59.260Z,5.83
2023-04-02T23:02:01.918Z,4.23
2023-04-02T23:05:06.703Z,3.05
2023-04-02T23:08:09.347Z,2.63
2023-04-02T23:11:14.044Z,5.90
2023-04-02T23:14:16.598Z,5.20
2023-04-02T23:17:21.531Z,2.60
2023-04-02T23:20:25.562Z,3.77
2023-04-02T23:23:28.541Z,3.90
2023-04-02T23:26:31.713Z,4.35
2023-04-02T23:29:34.296Z,2.97
2023-04-02T23:32:36.994Z,2.90
2023-04-02T23:35:41.119Z,4.97
2023-04-02T23:38:43.700Z,1.80
2023-04-02T23:41:46.185Z,2.60
2023-04-02T23:44:48.724Z,5.20
2023-04-02T23:47:51.325Z,4.40
2023-04-02T23:50:55.446Z,2.70
2023-04-02T23:53:58.175Z,6.30
2023-04-02T23:57:00.694Z,3.03
